Terminal Aerodrome Forecast
Issued by NWS Sterling, VA

Current Version | Previous Version | Graphics & Text | Print | Product List | Glossary On
Versions: 1 2 3 4 5 6 7 8 9 10 11 12 13 14 15 16 17 18 19 20 21 22 23 24
000
FTUS41 KLWX 220500
TAFIAD
TAF
KIAD 220520Z 2206/2312 00000KT P6SM SKC
     FM221300 18006KT P6SM FEW250
     FM221800 19010KT P6SM FEW090
     FM222100 20009KT P6SM BKN090
     FM230900 20005KT P6SM SCT090=

USA.gov is the U.S. government's official web portal to all federal, state and local government web resources and services.